createdAt,value
2022-08-14T00:01:54.397Z,20.63
2022-08-14T00:04:35.280Z,20.47
2022-08-14T00:07:11.511Z,20.48
2022-08-14T00:09:55.741Z,20.39
2022-08-14T00:12:33.997Z,20.31
2022-08-14T00:15:22.794Z,20.29
2022-08-14T00:17:53.073Z,20.30
2022-08-14T00:20:31.027Z,20.19
2022-08-14T00:23:16.350Z,20.18
2022-08-14T00:25:54.052Z,20.16
2022-08-14T00:28:35.584Z,20.11
2022-08-14T00:31:05.604Z,20.14
2022-08-14T00:33:52.211Z,20.08
2022-08-14T00:36:36.386Z,20.03
2022-08-14T00:39:18.314Z,19.93
2022-08-14T00:41:47.002Z,19.89
2022-08-14T00:44:14.748Z,19.95
2022-08-14T00:46:49.472Z,19.90
2022-08-14T00:49:17.877Z,19.81
2022-08-14T00:51:48.295Z,19.78
2022-08-14T00:54:21.239Z,19.73
2022-08-14T00:56:55.615Z,19.66
2022-08-14T00:59:25.711Z,19.65
2022-08-14T01:01:56.204Z,19.63
2022-08-14T01:04:37.650Z,19.38
2022-08-14T01:07:11.820Z,19.56
2022-08-14T01:09:41.521Z,19.57
2022-08-14T01:12:09.361Z,19.57
2022-08-14T01:14:38.234Z,19.51
2022-08-14T01:17:08.764Z,19.40
2022-08-14T01:19:54.893Z,19.40
2022-08-14T01:22:51.284Z,19.42
2022-08-14T01:25:20.334Z,19.43
2022-08-14T01:27:57.316Z,19.40
2022-08-14T01:30:27.403Z,19.37
2022-08-14T01:32:54.510Z,19.22
2022-08-14T01:36:03.760Z,19.38
2022-08-14T01:38:10.341Z,19.36
2022-08-14T01:40:41.985Z,19.29
2022-08-14T01:43:18.953Z,19.34
2022-08-14T01:45:57.604Z,19.19
2022-08-14T01:48:37.476Z,19.20
2022-08-14T01:51:19.551Z,19.20
2022-08-14T01:53:54.686Z,19.18
2022-08-14T01:56:39.732Z,19.10
2022-08-14T01:59:20.921Z,19.09
2022-08-14T02:01:57.862Z,19.03
2022-08-14T02:04:55.006Z,18.97
2022-08-14T02:07:34.162Z,18.95
2022-08-14T02:10:07.060Z,18.96
2022-08-14T02:12:34.727Z,18.98
2022-08-14T02:15:03.045Z,18.79
2022-08-14T02:17:33.371Z,18.91
2022-08-14T02:20:00.969Z,18.88
2022-08-14T02:22:33.169Z,18.89
2022-08-14T02:25:01.489Z,18.57
2022-08-14T02:28:24.454Z,18.83
2022-08-14T02:30:16.483Z,18.75
2022-08-14T02:32:45.771Z,18.70
2022-08-14T02:35:21.958Z,18.40
2022-08-14T02:37:53.535Z,18.70
2022-08-14T02:40:32.530Z,18.60
2022-08-14T02:43:02.754Z,18.59
2022-08-14T02:45:38.615Z,18.20
2022-08-14T02:49:02.726Z,18.51
2022-08-14T02:51:01.296Z,18.45
2022-08-14T02:53:29.900Z,18.47
2022-08-14T02:56:30.319Z,18.41
2022-08-14T02:59:08.198Z,18.41
2022-08-14T03:01:43.803Z,18.18
2022-08-14T03:04:17.712Z,18.30
2022-08-14T03:06:57.877Z,17.92
2022-08-14T03:09:42.380Z,18.36
2022-08-14T03:12:31.518Z,18.61
2022-08-14T03:15:03.047Z,18.39
2022-08-14T03:17:32.076Z,18.32
2022-08-14T03:20:11.946Z,18.20
2022-08-14T03:22:42.140Z,18.20
2022-08-14T03:25:11.361Z,18.15
2022-08-14T03:27:47.779Z,18.19
2022-08-14T03:30:15.773Z,18.13
2022-08-14T03:32:51.470Z,18.28
2022-08-14T03:35:19.697Z,18.23
2022-08-14T03:39:10.905Z,18.29
2022-08-14T03:40:34.227Z,18.18
2022-08-14T03:43:05.607Z,18.23
2022-08-14T03:45:35.718Z,18.19
2022-08-14T03:48:30.237Z,18.13
2022-08-14T03:50:59.640Z,17.98
2022-08-14T03:53:28.621Z,17.89
2022-08-14T03:55:58.965Z,17.83
2022-08-14T03:58:36.260Z,17.73
2022-08-14T04:01:06.558Z,17.71
2022-08-14T04:03:37.211Z,17.62
2022-08-14T04:06:05.745Z,17.62
2022-08-14T04:08:37.430Z,17.72
2022-08-14T04:11:08.041Z,17.72
2022-08-14T04:13:42.564Z,17.77
2022-08-14T04:16:13.081Z,17.78
2022-08-14T04:18:45.733Z,17.69
2022-08-14T04:21:13.429Z,17.65
2022-08-14T04:23:42.709Z,17.71
2022-08-14T04:26:14.791Z,17.73
2022-08-14T04:29:07.484Z,17.60
2022-08-14T04:33:10.490Z,17.84
2022-08-14T04:34:24.012Z,17.89
2022-08-14T04:37:21.903Z,17.75
2022-08-14T04:40:08.809Z,17.84
2022-08-14T04:42:55.414Z,17.90
2022-08-14T04:45:24.893Z,17.90
2022-08-14T04:48:12.657Z,17.63
2022-08-14T04:50:53.973Z,17.98
2022-08-14T04:53:34.883Z,18.00
2022-08-14T04:56:03.798Z,17.71
2022-08-14T04:58:35.273Z,17.95
2022-08-14T05:01:22.144Z,18.12
2022-08-14T05:03:49.616Z,17.99
2022-08-14T05:06:38.273Z,17.67
2022-08-14T05:09:06.542Z,18.06
2022-08-14T05:11:36.639Z,17.80
2022-08-14T05:14:43.411Z,18.19
2022-08-14T05:16:52.495Z,18.34
2022-08-14T05:19:29.092Z,18.36
2022-08-14T05:22:17.081Z,18.46
2022-08-14T05:24:51.296Z,18.60
2022-08-14T05:27:23.004Z,18.57
2022-08-14T05:29:52.994Z,18.59
2022-08-14T05:32:20.434Z,18.60
2022-08-14T05:34:47.957Z,18.85
2022-08-14T05:37:15.451Z,18.77
2022-08-14T05:39:43.677Z,19.19
2022-08-14T05:42:22.268Z,19.25
2022-08-14T05:44:55.428Z,19.27
2022-08-14T05:47:23.812Z,19.52
2022-08-14T05:49:51.676Z,19.62
2022-08-14T05:52:26.360Z,19.71
2022-08-14T05:55:08.464Z,19.68
2022-08-14T05:57:48.987Z,20.00
2022-08-14T06:00:24.362Z,20.03
2022-08-14T06:02:52.211Z,20.12
2022-08-14T06:05:23.389Z,20.11
2022-08-14T06:07:50.944Z,20.26
2022-08-14T06:10:19.043Z,20.46
2022-08-14T06:12:55.715Z,20.56
2022-08-14T06:15:29.687Z,20.68
2022-08-14T06:17:58.919Z,20.83
2022-08-14T06:20:28.611Z,20.92
2022-08-14T06:22:57.880Z,21.11
2022-08-14T06:25:27.022Z,21.29
2022-08-14T06:27:55.814Z,21.39
2022-08-14T06:30:30.458Z,21.54
2022-08-14T06:33:15.746Z,21.65
2022-08-14T06:35:43.781Z,21.80
2022-08-14T06:38:19.129Z,21.96
2022-08-14T06:40:47.727Z,22.11
2022-08-14T06:43:16.962Z,22.26
2022-08-14T06:45:50.231Z,22.35
2022-08-14T06:48:23.872Z,22.50
2022-08-14T06:50:53.890Z,22.65
2022-08-14T06:53:22.236Z,22.76
2022-08-14T06:56:00.754Z,22.86
2022-08-14T06:58:31.562Z,22.88
2022-08-14T07:01:25.019Z,23.00
2022-08-14T07:04:23.198Z,23.21
2022-08-14T07:06:54.803Z,23.38
2022-08-14T07:09:43.820Z,23.18
2022-08-14T07:12:52.034Z,23.58
2022-08-14T07:15:04.707Z,23.65
2022-08-14T07:17:34.483Z,23.46
2022-08-14T07:20:04.954Z,23.74
2022-08-14T07:22:50.125Z,23.97
2022-08-14T07:25:22.418Z,23.93
2022-08-14T07:28:00.675Z,23.72
2022-08-14T07:30:33.896Z,24.12
2022-08-14T07:33:03.503Z,24.17
2022-08-14T07:35:43.051Z,24.35
2022-08-14T07:38:21.484Z,24.57
2022-08-14T07:40:53.060Z,24.58
2022-08-14T07:43:21.736Z,24.65
2022-08-14T07:45:50.791Z,24.77
2022-08-14T07:48:18.011Z,24.56
2022-08-14T07:50:52.055Z,24.84
2022-08-14T07:53:19.753Z,24.71
2022-08-14T07:55:47.225Z,25.11
2022-08-14T07:58:38.808Z,25.12
2022-08-14T08:01:19.172Z,25.25
2022-08-14T08:03:47.771Z,25.31
2022-08-14T08:06:19.007Z,25.44
2022-08-14T08:09:01.087Z,25.51
2022-08-14T08:11:37.423Z,25.10
2022-08-14T08:14:10.820Z,25.60
2022-08-14T08:16:46.394Z,25.62
2022-08-14T08:19:14.337Z,25.83
2022-08-14T08:21:43.536Z,25.98
2022-08-14T08:24:11.160Z,26.12
2022-08-14T08:26:39.675Z,26.21
2022-08-14T08:29:07.931Z,26.20
2022-08-14T08:31:48.926Z,26.36
2022-08-14T08:34:20.791Z,26.18
2022-08-14T08:36:51.685Z,26.43
2022-08-14T08:39:21.880Z,26.56
2022-08-14T08:41:50.747Z,26.62
2022-08-14T08:44:31.649Z,26.64
2022-08-14T08:47:06.458Z,26.69
2022-08-14T08:49:48.302Z,26.49
2022-08-14T08:52:29.105Z,26.71
2022-08-14T08:55:00.732Z,26.67
2022-08-14T08:57:35.809Z,26.59
2022-08-14T09:00:25.393Z,26.69
2022-08-14T09:03:04.068Z,26.71
2022-08-14T09:05:33.341Z,26.82
2022-08-14T09:08:31.491Z,26.92
2022-08-14T09:11:19.233Z,26.94
2022-08-14T09:13:51.440Z,26.95
2022-08-14T09:16:21.160Z,27.12
2022-08-14T09:18:48.923Z,27.11
2022-08-14T09:21:16.475Z,27.03
2022-08-14T09:24:26.299Z,27.12
2022-08-14T09:26:32.584Z,27.25
2022-08-14T09:29:00.589Z,27.27
2022-08-14T09:31:42.529Z,27.19
2022-08-14T09:34:58.285Z,27.29
2022-08-14T09:38:00.153Z,27.31
2022-08-14T09:40:59.083Z,27.54
2022-08-14T09:43:51.196Z,27.40
2022-08-14T09:46:21.206Z,27.49
2022-08-14T09:48:58.835Z,27.80
2022-08-14T09:51:32.996Z,27.81
2022-08-14T09:54:18.400Z,27.92
2022-08-14T09:56:56.957Z,28.03
2022-08-14T09:59:28.425Z,28.16
2022-08-14T10:02:01.064Z,28.13
2022-08-14T10:04:34.624Z,28.20
2022-08-14T10:07:05.234Z,28.32
2022-08-14T10:09:34.615Z,28.31
2022-08-14T10:12:04.795Z,28.29
2022-08-14T10:14:36.648Z,28.16
2022-08-14T10:17:08.716Z,28.26
2022-08-14T10:19:48.087Z,28.43
2022-08-14T10:23:15.110Z,28.30
2022-08-14T10:25:14.120Z,28.24
2022-08-14T10:27:46.439Z,28.62
2022-08-14T10:30:22.407Z,28.55
2022-08-14T10:32:52.444Z,28.86
2022-08-14T10:35:23.059Z,28.64
2022-08-14T10:37:52.481Z,28.78
2022-08-14T10:40:43.434Z,28.92
2022-08-14T10:43:24.069Z,29.01
2022-08-14T10:46:59.058Z,28.95
2022-08-14T10:49:02.617Z,28.82
2022-08-14T10:51:35.300Z,28.42
2022-08-14T10:54:17.011Z,28.89
2022-08-14T10:56:57.224Z,28.95
2022-08-14T10:59:30.780Z,29.24
2022-08-14T11:02:03.381Z,29.15
2022-08-14T11:04:31.258Z,28.91
2022-08-14T11:06:59.172Z,28.75
2022-08-14T11:09:31.723Z,28.52
2022-08-14T11:12:33.103Z,28.38
2022-08-14T11:15:02.155Z,28.51
2022-08-14T11:17:36.031Z,28.75
2022-08-14T11:20:07.075Z,28.75
2022-08-14T11:22:56.320Z,28.74
2022-08-14T11:25:43.521Z,28.80
2022-08-14T11:28:19.053Z,29.14
2022-08-14T11:30:54.213Z,28.82
2022-08-14T11:33:24.453Z,28.63
2022-08-14T11:35:51.884Z,28.90
2022-08-14T11:38:21.621Z,29.34
2022-08-14T11:40:48.905Z,29.60
2022-08-14T11:43:16.339Z,30.19
2022-08-14T11:45:48.514Z,30.16
2022-08-14T11:49:02.294Z,30.69
2022-08-14T11:51:14.449Z,31.00
2022-08-14T11:53:51.353Z,31.36
2022-08-14T11:56:18.698Z,31.26
2022-08-14T11:58:54.057Z,31.27
2022-08-14T12:01:28.489Z,31.36
2022-08-14T12:04:00.999Z,31.22
2022-08-14T12:06:38.394Z,31.53
2022-08-14T12:09:08.264Z,31.52
2022-08-14T12:11:43.810Z,31.70
2022-08-14T12:14:31.039Z,31.23
2022-08-14T12:17:02.165Z,30.73
2022-08-14T12:19:33.574Z,31.01
2022-08-14T12:22:02.691Z,30.69
2022-08-14T12:24:36.353Z,30.31
2022-08-14T12:27:04.390Z,30.19
2022-08-14T12:29:31.899Z,30.02
2022-08-14T12:32:03.784Z,30.00
2022-08-14T12:34:35.163Z,30.21
2022-08-14T12:37:07.953Z,30.22
2022-08-14T12:39:39.855Z,30.44
2022-08-14T12:42:08.084Z,30.16
2022-08-14T12:44:38.342Z,30.03
2022-08-14T12:47:15.143Z,29.99
2022-08-14T12:49:53.427Z,30.02
2022-08-14T12:52:47.280Z,29.90
2022-08-14T12:55:32.687Z,29.83
2022-08-14T12:58:28.832Z,29.63
2022-08-14T13:01:17.271Z,30.06
2022-08-14T13:03:51.840Z,30.30
2022-08-14T13:06:20.366Z,30.38
2022-08-14T13:08:53.317Z,30.11
2022-08-14T13:11:23.915Z,29.58
2022-08-14T13:13:58.267Z,29.99
2022-08-14T13:16:37.989Z,30.38
2022-08-14T13:19:11.655Z,30.71
2022-08-14T13:22:05.334Z,30.83
2022-08-14T13:24:27.686Z,30.69
2022-08-14T13:26:58.368Z,30.75
2022-08-14T13:29:29.735Z,30.88
2022-08-14T13:31:58.708Z,30.49
2022-08-14T13:34:28.237Z,30.78
2022-08-14T13:36:59.397Z,30.71
2022-08-14T13:39:36.302Z,31.08
2022-08-14T13:42:13.242Z,31.20
2022-08-14T13:44:42.832Z,30.98
2022-08-14T13:47:12.046Z,30.94
2022-08-14T13:49:58.137Z,30.88
2022-08-14T13:52:59.116Z,30.79
2022-08-14T13:55:17.981Z,30.97
2022-08-14T13:57:49.548Z,30.92
2022-08-14T14:00:21.777Z,30.89
2022-08-14T14:03:00.405Z,30.91
2022-08-14T14:05:53.345Z,31.14
2022-08-14T14:08:19.123Z,31.11
2022-08-14T14:11:04.051Z,31.29
2022-08-14T14:13:32.005Z,30.72
2022-08-14T14:16:02.249Z,31.03
2022-08-14T14:18:34.878Z,30.88
2022-08-14T14:21:03.116Z,31.16
2022-08-14T14:23:31.143Z,31.41
2022-08-14T14:26:00.097Z,31.53
2022-08-14T14:28:34.233Z,31.70
2022-08-14T14:31:06.078Z,31.80
2022-08-14T14:33:47.092Z,31.89
2022-08-14T14:36:20.985Z,31.89
2022-08-14T14:39:01.130Z,31.81
2022-08-14T14:41:38.088Z,31.82
2022-08-14T14:44:13.530Z,32.02
2022-08-14T14:46:50.547Z,31.88
2022-08-14T14:49:21.865Z,31.96
2022-08-14T14:51:51.459Z,32.00
2022-08-14T14:54:30.313Z,32.31
2022-08-14T14:57:04.013Z,32.34
2022-08-14T14:59:37.452Z,32.15
2022-08-14T15:02:07.947Z,32.13
2022-08-14T15:04:37.977Z,31.97
2022-08-14T15:07:06.309Z,32.35
2022-08-14T15:09:34.115Z,32.52
2022-08-14T15:12:16.002Z,32.31
2022-08-14T15:14:54.948Z,32.43
2022-08-14T15:17:28.485Z,32.11
2022-08-14T15:20:07.693Z,31.62
2022-08-14T15:22:35.615Z,31.52
2022-08-14T15:25:03.093Z,31.44
2022-08-14T15:27:31.490Z,32.12
2022-08-14T15:29:59.430Z,32.66
2022-08-14T15:32:26.667Z,32.74
2022-08-14T15:34:57.894Z,33.03
2022-08-14T15:37:24.934Z,33.36
2022-08-14T15:40:00.455Z,33.44
2022-08-14T15:42:30.269Z,33.23
2022-08-14T15:45:01.267Z,33.18
2022-08-14T15:47:31.233Z,32.94
2022-08-14T15:50:01.009Z,33.53
2022-08-14T15:52:35.623Z,33.92
2022-08-14T15:55:07.957Z,33.81
2022-08-14T15:57:36.835Z,33.78
2022-08-14T16:00:40.608Z,34.38
2022-08-14T16:03:14.231Z,34.52
2022-08-14T16:05:46.027Z,35.07
2022-08-14T16:08:29.256Z,35.40
2022-08-14T16:11:03.800Z,35.57
2022-08-14T16:13:41.383Z,35.58
2022-08-14T16:16:47.218Z,36.39
2022-08-14T16:19:19.129Z,36.32
2022-08-14T16:22:02.164Z,37.46
2022-08-14T16:25:00.456Z,37.21
2022-08-14T16:27:37.051Z,37.94
2022-08-14T16:30:20.882Z,38.18
2022-08-14T16:32:55.774Z,38.41
2022-08-14T16:35:42.829Z,37.44
2022-08-14T16:38:19.702Z,38.39
2022-08-14T16:41:22.989Z,37.93
2022-08-14T16:43:54.016Z,37.60
2022-08-14T16:46:28.633Z,36.49
2022-08-14T16:48:58.744Z,35.50
2022-08-14T16:51:31.030Z,34.76
2022-08-14T16:54:34.591Z,34.71
2022-08-14T16:57:12.639Z,34.30
2022-08-14T16:59:52.304Z,34.75
2022-08-14T17:02:42.092Z,35.37
2022-08-14T17:05:26.851Z,35.10
2022-08-14T17:08:32.080Z,35.51
2022-08-14T17:11:11.922Z,34.55
2022-08-14T17:13:59.854Z,33.94
2022-08-14T17:16:37.550Z,33.25
2022-08-14T17:19:13.606Z,32.34
2022-08-14T17:21:47.407Z,31.90
2022-08-14T17:24:51.540Z,31.93
2022-08-14T17:27:07.250Z,31.33
2022-08-14T17:29:54.774Z,31.19
2022-08-14T17:32:29.750Z,30.97
2022-08-14T17:35:16.873Z,31.09
2022-08-14T17:37:46.183Z,31.46
2022-08-14T17:40:19.779Z,31.41
2022-08-14T17:42:51.613Z,31.02
2022-08-14T17:45:45.358Z,30.64
2022-08-14T17:49:14.753Z,30.48
2022-08-14T17:51:24.063Z,30.38
2022-08-14T17:54:02.363Z,30.17
2022-08-14T17:56:32.499Z,30.01
2022-08-14T17:59:05.633Z,29.92
2022-08-14T18:01:37.358Z,29.53
2022-08-14T18:04:24.524Z,29.41
2022-08-14T18:07:09.064Z,29.56
2022-08-14T18:09:58.769Z,29.45
2022-08-14T18:12:36.865Z,29.24
2022-08-14T18:15:17.479Z,29.13
2022-08-14T18:17:52.703Z,29.05
2022-08-14T18:21:24.306Z,28.83
2022-08-14T18:23:13.745Z,28.66
2022-08-14T18:25:48.229Z,28.52
2022-08-14T18:28:51.022Z,28.43
2022-08-14T18:31:21.299Z,28.15
2022-08-14T18:34:05.923Z,27.97
2022-08-14T18:36:57.033Z,27.86
2022-08-14T18:39:30.052Z,27.71
2022-08-14T18:42:23.664Z,27.55
2022-08-14T18:44:52.699Z,27.41
2022-08-14T18:47:24.261Z,27.30
2022-08-14T18:50:00.904Z,27.25
2022-08-14T18:52:39.608Z,27.20
2022-08-14T18:55:15.875Z,27.12
2022-08-14T18:57:57.980Z,27.18
2022-08-14T19:00:32.072Z,26.93
2022-08-14T19:03:04.220Z,26.68
2022-08-14T19:05:37.355Z,26.70
2022-08-14T19:08:21.982Z,26.62
2022-08-14T19:11:04.230Z,26.60
2022-08-14T19:13:48.685Z,26.38
2022-08-14T19:16:23.594Z,26.47
2022-08-14T19:19:00.581Z,26.34
2022-08-14T19:21:43.545Z,26.20
2022-08-14T19:24:27.777Z,26.23
2022-08-14T19:27:16.721Z,26.14
2022-08-14T19:29:47.884Z,25.90
2022-08-14T19:32:38.945Z,25.74
2022-08-14T19:35:49.982Z,25.60
2022-08-14T19:38:47.922Z,25.54
2022-08-14T19:41:17.760Z,25.41
2022-08-14T19:43:55.276Z,25.14
2022-08-14T19:46:39.196Z,25.27
2022-08-14T19:49:23.360Z,25.17
2022-08-14T19:52:04.443Z,25.00
2022-08-14T19:54:44.829Z,25.03
2022-08-14T19:57:30.182Z,25.00
2022-08-14T20:00:28.255Z,24.91
2022-08-14T20:03:13.522Z,24.77
2022-08-14T20:05:46.813Z,24.74
2022-08-14T20:10:59.612Z,24.97
2022-08-14T20:11:19.108Z,24.84
2022-08-14T20:14:23.695Z,24.64
2022-08-14T20:17:06.092Z,24.57
2022-08-14T20:19:37.298Z,24.54
2022-08-14T20:22:35.403Z,24.62
2022-08-14T20:25:10.980Z,24.55
2022-08-14T20:27:40.828Z,24.50
2022-08-14T20:30:29.569Z,24.53
2022-08-14T20:33:11.052Z,24.44
2022-08-14T20:35:38.577Z,24.46
2022-08-14T20:38:29.517Z,24.59
2022-08-14T20:41:06.866Z,24.47
2022-08-14T20:43:58.604Z,24.40
2022-08-14T20:46:33.649Z,24.38
2022-08-14T20:49:16.035Z,24.30
2022-08-14T20:51:58.690Z,24.30
2022-08-14T20:54:34.736Z,24.29
2022-08-14T20:57:09.302Z,24.23
2022-08-14T20:59:45.509Z,24.18
2022-08-14T21:02:34.550Z,24.30
2022-08-14T21:05:16.489Z,24.20
2022-08-14T21:07:50.702Z,23.98
2022-08-14T21:10:36.100Z,23.87
2022-08-14T21:14:17.804Z,23.75
2022-08-14T21:16:03.372Z,23.64
2022-08-14T21:18:34.898Z,23.50
2022-08-14T21:21:07.597Z,23.39
2022-08-14T21:23:53.738Z,23.32
2022-08-14T21:26:52.724Z,23.28
2022-08-14T21:29:13.424Z,22.85
2022-08-14T21:31:41.587Z,23.17
2022-08-14T21:34:27.084Z,23.12
2022-08-14T21:36:58.801Z,23.06
2022-08-14T21:39:25.848Z,23.04
2022-08-14T21:41:58.825Z,23.03
2022-08-14T21:44:42.962Z,23.00
2022-08-14T21:47:12.945Z,22.97
2022-08-14T21:49:43.150Z,22.96
2022-08-14T21:52:49.890Z,22.80
2022-08-14T21:55:10.457Z,22.45
2022-08-14T21:58:03.803Z,22.75
2022-08-14T22:00:37.440Z,22.70
2022-08-14T22:03:10.729Z,22.68
2022-08-14T22:05:39.323Z,22.49
2022-08-14T22:08:12.100Z,22.38
2022-08-14T22:10:46.699Z,22.54
2022-08-14T22:13:16.959Z,22.46
2022-08-14T22:15:49.625Z,22.43
2022-08-14T22:18:21.179Z,22.45
2022-08-14T22:20:53.617Z,22.43
2022-08-14T22:23:23.113Z,22.32
2022-08-14T22:25:51.190Z,22.34
2022-08-14T22:28:25.561Z,22.26
2022-08-14T22:30:55.138Z,22.16
2022-08-14T22:33:31.161Z,22.21
2022-08-14T22:36:00.761Z,21.86
2022-08-14T22:38:37.740Z,22.13
2022-08-14T22:41:25.275Z,22.14
2022-08-14T22:43:59.081Z,22.08
2022-08-14T22:46:27.122Z,22.08
2022-08-14T22:48:55.513Z,22.05
2022-08-14T22:51:26.042Z,21.94
2022-08-14T22:53:58.186Z,21.78
2022-08-14T22:56:30.103Z,21.74
2022-08-14T22:59:00.326Z,21.72
2022-08-14T23:01:57.024Z,21.51
2022-08-14T23:04:35.060Z,21.83
2022-08-14T23:07:22.529Z,21.90
2022-08-14T23:09:57.521Z,21.85
2022-08-14T23:12:29.715Z,21.77
2022-08-14T23:14:59.251Z,21.79
2022-08-14T23:17:39.102Z,21.82
2022-08-14T23:20:19.223Z,21.92
2022-08-14T23:22:50.483Z,21.75
2022-08-14T23:25:50.014Z,21.77
2022-08-14T23:28:34.881Z,21.75
2022-08-14T23:30:55.582Z,21.66
2022-08-14T23:33:22.616Z,21.69
2022-08-14T23:35:59.469Z,21.64
2022-08-14T23:38:30.925Z,21.64
2022-08-14T23:41:00.820Z,21.34
2022-08-14T23:43:31.212Z,21.57
2022-08-14T23:45:58.849Z,21.61
2022-08-14T23:48:28.308Z,21.51
2022-08-14T23:50:56.252Z,21.48
2022-08-14T23:53:47.471Z,21.47
2022-08-14T23:56:31.760Z,21.40
2022-08-14T23:59:01.682Z,21.43
